sensor_id;sensor_type;location;lat;lon;timestamp;P1;durP1;ratioP1;P2;durP2;ratioP2
16642;SDS011;8435;52.184;5.406;2023-06-14T00:02:14;4.05;;;2.80;;
16642;SDS011;8435;52.184;5.406;2023-06-14T00:04:44;3.42;;;2.60;;
16642;SDS011;8435;52.184;5.406;2023-06-14T00:07:13;4.05;;;2.50;;
16642;SDS011;8435;52.184;5.406;2023-06-14T00:09:41;3.15;;;2.13;;
16642;SDS011;8435;52.184;5.406;2023-06-14T00:12:09;2.80;;;2.58;;
16642;SDS011;8435;52.184;5.406;2023-06-14T00:14:36;4.95;;;2.53;;
16642;SDS011;8435;52.184;5.406;2023-06-14T00:17:03;4.00;;;2.72;;
16642;SDS011;8435;52.184;5.406;2023-06-14T00:19:32;3.08;;;2.88;;
16642;SDS011;8435;52.184;5.406;2023-06-14T00:22:00;3.55;;;3.13;;
16642;SDS011;8435;52.184;5.406;2023-06-14T00:24:28;3.75;;;2.60;;
16642;SDS011;8435;52.184;5.406;2023-06-14T00:26:55;7.03;;;2.70;;
16642;SDS011;8435;52.184;5.406;2023-06-14T00:29:23;4.90;;;2.55;;
16642;SDS011;8435;52.184;5.406;2023-06-14T00:31:49;2.97;;;2.33;;
16642;SDS011;8435;52.184;5.406;2023-06-14T00:34:16;4.80;;;2.92;;
16642;SDS011;8435;52.184;5.406;2023-06-14T00:36:43;3.75;;;2.72;;
16642;SDS011;8435;52.184;5.406;2023-06-14T00:39:10;3.78;;;2.30;;
16642;SDS011;8435;52.184;5.406;2023-06-14T00:41:36;5.85;;;2.55;;
16642;SDS011;8435;52.184;5.406;2023-06-14T00:44:04;4.18;;;2.40;;
16642;SDS011;8435;52.184;5.406;2023-06-14T00:46:32;3.85;;;2.90;;
16642;SDS011;8435;52.184;5.406;2023-06-14T00:48:59;2.58;;;2.33;;
16642;SDS011;8435;52.184;5.406;2023-06-14T00:51:27;3.58;;;2.33;;
16642;SDS011;8435;52.184;5.406;2023-06-14T00:53:54;3.53;;;2.47;;
16642;SDS011;8435;52.184;5.406;2023-06-14T00:56:21;2.50;;;2.25;;
16642;SDS011;8435;52.184;5.406;2023-06-14T00:58:49;2.42;;;2.15;;
16642;SDS011;8435;52.184;5.406;2023-06-14T01:01:16;3.92;;;2.50;;
16642;SDS011;8435;52.184;5.406;2023-06-14T01:03:44;7.32;;;2.70;;
16642;SDS011;8435;52.184;5.406;2023-06-14T01:06:15;3.35;;;2.53;;
16642;SDS011;8435;52.184;5.406;2023-06-14T01:08:55;4.25;;;2.28;;
16642;SDS011;8435;52.184;5.406;2023-06-14T01:11:32;2.97;;;2.20;;
16642;SDS011;8435;52.184;5.406;2023-06-14T01:14:05;3.00;;;2.42;;
16642;SDS011;8435;52.184;5.406;2023-06-14T01:16:32;4.68;;;2.53;;
16642;SDS011;8435;52.184;5.406;2023-06-14T01:19:02;2.75;;;2.25;;
16642;SDS011;8435;52.184;5.406;2023-06-14T01:21:30;2.58;;;2.38;;
16642;SDS011;8435;52.184;5.406;2023-06-14T01:24:07;3.30;;;2.58;;
16642;SDS011;8435;52.184;5.406;2023-06-14T01:26:36;3.88;;;2.63;;
16642;SDS011;8435;52.184;5.406;2023-06-14T01:29:10;4.85;;;2.63;;
16642;SDS011;8435;52.184;5.406;2023-06-14T01:31:42;3.13;;;2.83;;
16642;SDS011;8435;52.184;5.406;2023-06-14T01:34:10;4.10;;;2.50;;
16642;SDS011;8435;52.184;5.406;2023-06-14T01:36:37;3.03;;;2.38;;
16642;SDS011;8435;52.184;5.406;2023-06-14T01:39:09;2.75;;;2.50;;
16642;SDS011;8435;52.184;5.406;2023-06-14T01:41:37;5.45;;;2.22;;
16642;SDS011;8435;52.184;5.406;2023-06-14T01:44:05;4.68;;;2.40;;
16642;SDS011;8435;52.184;5.406;2023-06-14T01:46:33;2.67;;;2.38;;
16642;SDS011;8435;52.184;5.406;2023-06-14T01:49:00;4.10;;;2.00;;
16642;SDS011;8435;52.184;5.406;2023-06-14T01:51:27;4.60;;;2.50;;
16642;SDS011;8435;52.184;5.406;2023-06-14T01:53:54;2.67;;;2.40;;
16642;SDS011;8435;52.184;5.406;2023-06-14T01:56:23;4.63;;;2.40;;
16642;SDS011;8435;52.184;5.406;2023-06-14T01:58:51;5.05;;;2.45;;
16642;SDS011;8435;52.184;5.406;2023-06-14T02:01:18;2.88;;;2.65;;
16642;SDS011;8435;52.184;5.406;2023-06-14T02:03:46;2.25;;;2.00;;
16642;SDS011;8435;52.184;5.406;2023-06-14T02:06:13;2.45;;;2.10;;
16642;SDS011;8435;52.184;5.406;2023-06-14T02:08:40;4.30;;;2.53;;
16642;SDS011;8435;52.184;5.406;2023-06-14T02:11:07;2.60;;;2.10;;
16642;SDS011;8435;52.184;5.406;2023-06-14T02:13:36;2.47;;;2.13;;
16642;SDS011;8435;52.184;5.406;2023-06-14T02:16:03;3.63;;;2.38;;
16642;SDS011;8435;52.184;5.406;2023-06-14T02:18:30;4.32;;;2.40;;
16642;SDS011;8435;52.184;5.406;2023-06-14T02:20:57;4.10;;;2.20;;
16642;SDS011;8435;52.184;5.406;2023-06-14T02:23:23;2.40;;;2.13;;
16642;SDS011;8435;52.184;5.406;2023-06-14T02:25:50;4.72;;;2.53;;
16642;SDS011;8435;52.184;5.406;2023-06-14T02:28:17;5.38;;;2.45;;
16642;SDS011;8435;52.184;5.406;2023-06-14T02:30:45;3.78;;;2.20;;
16642;SDS011;8435;52.184;5.406;2023-06-14T02:33:12;2.65;;;2.10;;
16642;SDS011;8435;52.184;5.406;2023-06-14T02:35:39;3.35;;;2.22;;
16642;SDS011;8435;52.184;5.406;2023-06-14T02:38:05;2.80;;;2.30;;
16642;SDS011;8435;52.184;5.406;2023-06-14T02:40:32;2.25;;;2.13;;
16642;SDS011;8435;52.184;5.406;2023-06-14T02:42:59;4.72;;;2.10;;
16642;SDS011;8435;52.184;5.406;2023-06-14T02:45:26;5.13;;;2.47;;
16642;SDS011;8435;52.184;5.406;2023-06-14T02:47:54;3.13;;;2.42;;
16642;SDS011;8435;52.184;5.406;2023-06-14T02:50:21;3.92;;;2.33;;
16642;SDS011;8435;52.184;5.406;2023-06-14T02:52:48;2.58;;;2.05;;
16642;SDS011;8435;52.184;5.406;2023-06-14T02:55:15;4.72;;;2.58;;
16642;SDS011;8435;52.184;5.406;2023-06-14T02:57:42;3.03;;;2.13;;
16642;SDS011;8435;52.184;5.406;2023-06-14T03:00:09;2.75;;;2.10;;
16642;SDS011;8435;52.184;5.406;2023-06-14T03:02:38;3.85;;;2.45;;
16642;SDS011;8435;52.184;5.406;2023-06-14T03:05:06;2.73;;;2.10;;
16642;SDS011;8435;52.184;5.406;2023-06-14T03:07:34;3.20;;;2.60;;
16642;SDS011;8435;52.184;5.406;2023-06-14T03:10:06;4.30;;;2.40;;
16642;SDS011;8435;52.184;5.406;2023-06-14T03:12:34;2.33;;;2.13;;
16642;SDS011;8435;52.184;5.406;2023-06-14T03:15:02;6.05;;;2.38;;
16642;SDS011;8435;52.184;5.406;2023-06-14T03:17:32;2.38;;;2.00;;
16642;SDS011;8435;52.184;5.406;2023-06-14T03:20:00;3.92;;;2.50;;
16642;SDS011;8435;52.184;5.406;2023-06-14T03:22:28;2.58;;;2.20;;
16642;SDS011;8435;52.184;5.406;2023-06-14T03:24:55;3.10;;;2.63;;
16642;SDS011;8435;52.184;5.406;2023-06-14T03:27:24;5.43;;;2.23;;
16642;SDS011;8435;52.184;5.406;2023-06-14T03:29:53;3.40;;;2.40;;
16642;SDS011;8435;52.184;5.406;2023-06-14T03:32:20;2.40;;;2.17;;
16642;SDS011;8435;52.184;5.406;2023-06-14T03:34:47;4.20;;;2.00;;
16642;SDS011;8435;52.184;5.406;2023-06-14T03:37:16;2.23;;;2.13;;
16642;SDS011;8435;52.184;5.406;2023-06-14T03:39:44;4.87;;;2.60;;
16642;SDS011;8435;52.184;5.406;2023-06-14T03:42:12;4.17;;;2.23;;
16642;SDS011;8435;52.184;5.406;2023-06-14T03:44:39;4.37;;;2.67;;
16642;SDS011;8435;52.184;5.406;2023-06-14T03:47:06;5.07;;;2.77;;
16642;SDS011;8435;52.184;5.406;2023-06-14T03:49:33;3.60;;;2.50;;
16642;SDS011;8435;52.184;5.406;2023-06-14T03:52:00;5.90;;;2.87;;
16642;SDS011;8435;52.184;5.406;2023-06-14T03:54:27;4.77;;;2.70;;
16642;SDS011;8435;52.184;5.406;2023-06-14T03:56:56;2.70;;;2.03;;
16642;SDS011;8435;52.184;5.406;2023-06-14T03:59:22;3.70;;;2.40;;
16642;SDS011;8435;52.184;5.406;2023-06-14T04:01:51;3.67;;;2.80;;
16642;SDS011;8435;52.184;5.406;2023-06-14T04:04:18;3.73;;;2.33;;
16642;SDS011;8435;52.184;5.406;2023-06-14T04:06:46;3.97;;;2.40;;
16642;SDS011;8435;52.184;5.406;2023-06-14T04:09:13;2.80;;;2.33;;
16642;SDS011;8435;52.184;5.406;2023-06-14T04:11:40;3.37;;;2.40;;
16642;SDS011;8435;52.184;5.406;2023-06-14T04:14:08;3.03;;;2.30;;
16642;SDS011;8435;52.184;5.406;2023-06-14T04:16:35;4.03;;;2.50;;
16642;SDS011;8435;52.184;5.406;2023-06-14T04:19:01;3.07;;;2.23;;
16642;SDS011;8435;52.184;5.406;2023-06-14T04:21:28;3.90;;;2.13;;
16642;SDS011;8435;52.184;5.406;2023-06-14T04:23:55;6.28;;;2.53;;
16642;SDS011;8435;52.184;5.406;2023-06-14T04:26:22;2.58;;;2.20;;
16642;SDS011;8435;52.184;5.406;2023-06-14T04:28:54;3.77;;;2.40;;
16642;SDS011;8435;52.184;5.406;2023-06-14T04:31:23;7.07;;;3.13;;
16642;SDS011;8435;52.184;5.406;2023-06-14T04:33:50;2.80;;;2.27;;
16642;SDS011;8435;52.184;5.406;2023-06-14T04:36:20;2.67;;;2.03;;
16642;SDS011;8435;52.184;5.406;2023-06-14T04:38:47;4.87;;;2.50;;
16642;SDS011;8435;52.184;5.406;2023-06-14T04:41:19;4.50;;;2.53;;
16642;SDS011;8435;52.184;5.406;2023-06-14T04:43:47;2.57;;;2.07;;
16642;SDS011;8435;52.184;5.406;2023-06-14T04:46:14;4.63;;;2.37;;
16642;SDS011;8435;52.184;5.406;2023-06-14T04:48:43;6.27;;;2.60;;
16642;SDS011;8435;52.184;5.406;2023-06-14T04:51:10;3.40;;;2.47;;
16642;SDS011;8435;52.184;5.406;2023-06-14T04:53:38;4.38;;;2.60;;
16642;SDS011;8435;52.184;5.406;2023-06-14T04:56:05;2.57;;;2.37;;
16642;SDS011;8435;52.184;5.406;2023-06-14T04:58:32;3.40;;;2.50;;
16642;SDS011;8435;52.184;5.406;2023-06-14T05:00:59;2.78;;;2.33;;
16642;SDS011;8435;52.184;5.406;2023-06-14T05:03:27;3.15;;;2.50;;
16642;SDS011;8435;52.184;5.406;2023-06-14T05:05:57;4.20;;;2.40;;
16642;SDS011;8435;52.184;5.406;2023-06-14T05:08:25;4.20;;;2.47;;
16642;SDS011;8435;52.184;5.406;2023-06-14T05:10:52;3.65;;;2.35;;
16642;SDS011;8435;52.184;5.406;2023-06-14T05:13:19;3.37;;;2.40;;
16642;SDS011;8435;52.184;5.406;2023-06-14T05:15:48;5.18;;;2.75;;
16642;SDS011;8435;52.184;5.406;2023-06-14T05:18:15;4.03;;;2.90;;
16642;SDS011;8435;52.184;5.406;2023-06-14T05:20:41;2.90;;;2.67;;
16642;SDS011;8435;52.184;5.406;2023-06-14T05:23:09;2.90;;;2.60;;
16642;SDS011;8435;52.184;5.406;2023-06-14T05:25:41;3.05;;;2.65;;
16642;SDS011;8435;52.184;5.406;2023-06-14T05:28:08;4.85;;;2.80;;
16642;SDS011;8435;52.184;5.406;2023-06-14T05:30:35;4.70;;;2.70;;
16642;SDS011;8435;52.184;5.406;2023-06-14T05:33:03;6.47;;;2.53;;
16642;SDS011;8435;52.184;5.406;2023-06-14T05:35:30;3.13;;;2.45;;
16642;SDS011;8435;52.184;5.406;2023-06-14T05:37:56;2.55;;;2.33;;
16642;SDS011;8435;52.184;5.406;2023-06-14T05:40:25;2.50;;;2.30;;
16642;SDS011;8435;52.184;5.406;2023-06-14T05:42:51;2.83;;;2.30;;
16642;SDS011;8435;52.184;5.406;2023-06-14T05:45:18;2.35;;;2.15;;
16642;SDS011;8435;52.184;5.406;2023-06-14T05:47:45;6.70;;;2.63;;
16642;SDS011;8435;52.184;5.406;2023-06-14T05:50:12;4.75;;;2.70;;
16642;SDS011;8435;52.184;5.406;2023-06-14T05:52:38;2.08;;;1.88;;
16642;SDS011;8435;52.184;5.406;2023-06-14T05:55:05;3.45;;;2.63;;
16642;SDS011;8435;52.184;5.406;2023-06-14T05:57:34;3.90;;;2.60;;
16642;SDS011;8435;52.184;5.406;2023-06-14T06:00:01;5.28;;;2.50;;
16642;SDS011;8435;52.184;5.406;2023-06-14T06:02:34;2.63;;;2.42;;
16642;SDS011;8435;52.184;5.406;2023-06-14T06:05:01;3.30;;;2.60;;
16642;SDS011;8435;52.184;5.406;2023-06-14T06:07:28;2.40;;;1.92;;
16642;SDS011;8435;52.184;5.406;2023-06-14T06:09:55;2.28;;;2.17;;
16642;SDS011;8435;52.184;5.406;2023-06-14T06:12:21;2.53;;;2.20;;
16642;SDS011;8435;52.184;5.406;2023-06-14T06:14:50;2.55;;;2.35;;
16642;SDS011;8435;52.184;5.406;2023-06-14T06:17:16;4.00;;;2.25;;
16642;SDS011;8435;52.184;5.406;2023-06-14T06:19:43;2.60;;;2.40;;
16642;SDS011;8435;52.184;5.406;2023-06-14T06:22:10;2.78;;;2.42;;
16642;SDS011;8435;52.184;5.406;2023-06-14T06:24:37;5.70;;;2.40;;
16642;SDS011;8435;52.184;5.406;2023-06-14T06:27:04;2.85;;;2.55;;
16642;SDS011;8435;52.184;5.406;2023-06-14T06:29:32;2.10;;;2.00;;
16642;SDS011;8435;52.184;5.406;2023-06-14T06:32:02;2.85;;;2.47;;
16642;SDS011;8435;52.184;5.406;2023-06-14T06:34:29;3.00;;;2.45;;
16642;SDS011;8435;52.184;5.406;2023-06-14T06:36:56;3.45;;;2.55;;
16642;SDS011;8435;52.184;5.406;2023-06-14T06:39:23;3.25;;;2.80;;
16642;SDS011;8435;52.184;5.406;2023-06-14T06:41:53;2.60;;;2.40;;
16642;SDS011;8435;52.184;5.406;2023-06-14T06:44:20;4.05;;;2.53;;
16642;SDS011;8435;52.184;5.406;2023-06-14T06:46:46;4.50;;;2.70;;
16642;SDS011;8435;52.184;5.406;2023-06-14T06:49:14;2.55;;;2.35;;
16642;SDS011;8435;52.184;5.406;2023-06-14T06:51:57;3.42;;;2.80;;
16642;SDS011;8435;52.184;5.406;2023-06-14T06:54:29;2.75;;;2.55;;
16642;SDS011;8435;52.184;5.406;2023-06-14T06:56:56;3.00;;;2.50;;
16642;SDS011;8435;52.184;5.406;2023-06-14T06:59:23;2.72;;;2.50;;
16642;SDS011;8435;52.184;5.406;2023-06-14T07:01:50;3.08;;;2.88;;
16642;SDS011;8435;52.184;5.406;2023-06-14T07:04:18;3.22;;;2.60;;
16642;SDS011;8435;52.184;5.406;2023-06-14T07:06:46;3.90;;;2.80;;
16642;SDS011;8435;52.184;5.406;2023-06-14T07:09:13;3.15;;;2.70;;
16642;SDS011;8435;52.184;5.406;2023-06-14T07:11:41;3.03;;;2.20;;
16642;SDS011;8435;52.184;5.406;2023-06-14T07:14:09;2.85;;;2.60;;
16642;SDS011;8435;52.184;5.406;2023-06-14T07:16:36;4.60;;;2.53;;
16642;SDS011;8435;52.184;5.406;2023-06-14T07:19:03;3.30;;;2.53;;
16642;SDS011;8435;52.184;5.406;2023-06-14T07:21:32;5.45;;;3.03;;
16642;SDS011;8435;52.184;5.406;2023-06-14T07:23:59;3.08;;;2.50;;
16642;SDS011;8435;52.184;5.406;2023-06-14T07:26:28;4.40;;;2.70;;
16642;SDS011;8435;52.184;5.406;2023-06-14T07:28:54;2.88;;;2.40;;
16642;SDS011;8435;52.184;5.406;2023-06-14T07:31:21;8.13;;;2.42;;
16642;SDS011;8435;52.184;5.406;2023-06-14T07:33:48;2.72;;;2.53;;
16642;SDS011;8435;52.184;5.406;2023-06-14T07:36:15;2.35;;;2.15;;
16642;SDS011;8435;52.184;5.406;2023-06-14T07:38:44;2.75;;;2.33;;
16642;SDS011;8435;52.184;5.406;2023-06-14T07:41:12;2.92;;;2.47;;
16642;SDS011;8435;52.184;5.406;2023-06-14T07:43:38;5.10;;;2.45;;
16642;SDS011;8435;52.184;5.406;2023-06-14T07:46:05;3.97;;;2.40;;
16642;SDS011;8435;52.184;5.406;2023-06-14T07:48:33;2.30;;;2.00;;
16642;SDS011;8435;52.184;5.406;2023-06-14T07:50:59;2.88;;;2.20;;
16642;SDS011;8435;52.184;5.406;2023-06-14T07:53:26;3.90;;;2.22;;
16642;SDS011;8435;52.184;5.406;2023-06-14T07:55:55;2.05;;;1.95;;
16642;SDS011;8435;52.184;5.406;2023-06-14T07:58:21;2.17;;;2.05;;
16642;SDS011;8435;52.184;5.406;2023-06-14T08:00:48;1.73;;;1.63;;
16642;SDS011;8435;52.184;5.406;2023-06-14T08:03:15;2.55;;;1.80;;
16642;SDS011;8435;52.184;5.406;2023-06-14T08:05:42;1.90;;;1.80;;
16642;SDS011;8435;52.184;5.406;2023-06-14T08:08:08;2.25;;;2.00;;
16642;SDS011;8435;52.184;5.406;2023-06-14T08:10:35;2.00;;;1.90;;
16642;SDS011;8435;52.184;5.406;2023-06-14T08:13:03;2.00;;;1.80;;
16642;SDS011;8435;52.184;5.406;2023-06-14T08:15:30;3.80;;;2.00;;
16642;SDS011;8435;52.184;5.406;2023-06-14T08:18:02;2.30;;;2.10;;
16642;SDS011;8435;52.184;5.406;2023-06-14T08:20:29;1.92;;;1.73;;
16642;SDS011;8435;52.184;5.406;2023-06-14T08:22:56;2.35;;;1.80;;
16642;SDS011;8435;52.184;5.406;2023-06-14T08:25:24;1.83;;;1.58;;
16642;SDS011;8435;52.184;5.406;2023-06-14T08:27:54;2.30;;;1.90;;
16642;SDS011;8435;52.184;5.406;2023-06-14T08:30:34;2.92;;;1.75;;
16642;SDS011;8435;52.184;5.406;2023-06-14T08:33:01;1.88;;;1.77;;
16642;SDS011;8435;52.184;5.406;2023-06-14T08:35:28;2.00;;;1.80;;
16642;SDS011;8435;52.184;5.406;2023-06-14T08:37:55;1.77;;;1.67;;
16642;SDS011;8435;52.184;5.406;2023-06-14T08:40:22;2.10;;;2.00;;
16642;SDS011;8435;52.184;5.406;2023-06-14T08:42:53;1.63;;;1.52;;
16642;SDS011;8435;52.184;5.406;2023-06-14T08:45:21;1.73;;;1.63;;
16642;SDS011;8435;52.184;5.406;2023-06-14T08:47:49;1.58;;;1.48;;
16642;SDS011;8435;52.184;5.406;2023-06-14T08:50:19;1.75;;;1.65;;
16642;SDS011;8435;52.184;5.406;2023-06-14T08:52:49;1.58;;;1.48;;
16642;SDS011;8435;52.184;5.406;2023-06-14T08:55:20;1.90;;;1.80;;
16642;SDS011;8435;52.184;5.406;2023-06-14T08:57:50;3.30;;;1.77;;
16642;SDS011;8435;52.184;5.406;2023-06-14T09:00:20;5.43;;;1.88;;
16642;SDS011;8435;52.184;5.406;2023-06-14T09:02:53;1.83;;;1.73;;
16642;SDS011;8435;52.184;5.406;2023-06-14T09:05:23;1.45;;;1.35;;
16642;SDS011;8435;52.184;5.406;2023-06-14T09:07:50;1.60;;;1.50;;
16642;SDS011;8435;52.184;5.406;2023-06-14T09:10:18;2.30;;;1.52;;
16642;SDS011;8435;52.184;5.406;2023-06-14T09:12:46;1.75;;;1.65;;
16642;SDS011;8435;52.184;5.406;2023-06-14T09:15:13;1.75;;;1.52;;
16642;SDS011;8435;52.184;5.406;2023-06-14T09:17:42;2.00;;;1.60;;
16642;SDS011;8435;52.184;5.406;2023-06-14T09:20:11;2.05;;;1.90;;
16642;SDS011;8435;52.184;5.406;2023-06-14T09:22:43;2.20;;;1.85;;
16642;SDS011;8435;52.184;5.406;2023-06-14T09:25:10;2.05;;;1.85;;
16642;SDS011;8435;52.184;5.406;2023-06-14T09:27:37;1.90;;;1.63;;
16642;SDS011;8435;52.184;5.406;2023-06-14T09:30:06;1.73;;;1.63;;
16642;SDS011;8435;52.184;5.406;2023-06-14T09:32:36;1.60;;;1.50;;
16642;SDS011;8435;52.184;5.406;2023-06-14T09:35:05;1.73;;;1.63;;
16642;SDS011;8435;52.184;5.406;2023-06-14T09:37:34;1.60;;;1.50;;
16642;SDS011;8435;52.184;5.406;2023-06-14T09:40:05;1.83;;;1.73;;
16642;SDS011;8435;52.184;5.406;2023-06-14T09:42:35;1.70;;;1.60;;
16642;SDS011;8435;52.184;5.406;2023-06-14T09:45:03;2.55;;;1.58;;
16642;SDS011;8435;52.184;5.406;2023-06-14T09:47:31;3.85;;;1.70;;
16642;SDS011;8435;52.184;5.406;2023-06-14T09:49:57;1.83;;;1.73;;
16642;SDS011;8435;52.184;5.406;2023-06-14T09:52:25;1.70;;;1.60;;
16642;SDS011;8435;52.184;5.406;2023-06-14T09:54:55;3.42;;;1.52;;
16642;SDS011;8435;52.184;5.406;2023-06-14T09:57:22;1.70;;;1.60;;
16642;SDS011;8435;52.184;5.406;2023-06-14T09:59:52;1.60;;;1.50;;
16642;SDS011;8435;52.184;5.406;2023-06-14T10:02:24;1.70;;;1.60;;
16642;SDS011;8435;52.184;5.406;2023-06-14T10:04:58;1.50;;;1.40;;
16642;SDS011;8435;52.184;5.406;2023-06-14T10:07:32;1.85;;;1.70;;
16642;SDS011;8435;52.184;5.406;2023-06-14T10:10:07;2.70;;;1.70;;
16642;SDS011;8435;52.184;5.406;2023-06-14T10:12:34;2.88;;;1.45;;
16642;SDS011;8435;52.184;5.406;2023-06-14T10:15:04;3.20;;;1.60;;
16642;SDS011;8435;52.184;5.406;2023-06-14T10:17:33;1.95;;;1.73;;
16642;SDS011;8435;52.184;5.406;2023-06-14T10:20:15;1.70;;;1.60;;
16642;SDS011;8435;52.184;5.406;2023-06-14T10:22:48;1.35;;;1.35;;
16642;SDS011;8435;52.184;5.406;2023-06-14T10:25:28;1.65;;;1.55;;
16642;SDS011;8435;52.184;5.406;2023-06-14T10:28:02;1.65;;;1.55;;
16642;SDS011;8435;52.184;5.406;2023-06-14T10:30:30;2.25;;;1.40;;
16642;SDS011;8435;52.184;5.406;2023-06-14T10:33:03;1.50;;;1.40;;
16642;SDS011;8435;52.184;5.406;2023-06-14T10:35:31;1.70;;;1.60;;
16642;SDS011;8435;52.184;5.406;2023-06-14T10:38:05;1.75;;;1.50;;
16642;SDS011;8435;52.184;5.406;2023-06-14T10:40:34;2.00;;;1.77;;
16642;SDS011;8435;52.184;5.406;2023-06-14T10:48:43;2.13;;;1.70;;
16642;SDS011;8435;52.184;5.406;2023-06-14T10:51:17;1.50;;;1.40;;
16642;SDS011;8435;52.184;5.406;2023-06-14T10:53:48;1.77;;;1.67;;
16642;SDS011;8435;52.184;5.406;2023-06-14T10:56:29;2.80;;;1.48;;
16642;SDS011;8435;52.184;5.406;2023-06-14T10:58:57;1.50;;;1.40;;
16642;SDS011;8435;52.184;5.406;2023-06-14T11:01:29;1.70;;;1.50;;
16642;SDS011;8435;52.184;5.406;2023-06-14T11:04:08;2.10;;;1.90;;
16642;SDS011;8435;52.184;5.406;2023-06-14T11:06:45;2.45;;;1.45;;
16642;SDS011;8435;52.184;5.406;2023-06-14T11:09:23;1.33;;;1.23;;
16642;SDS011;8435;52.184;5.406;2023-06-14T11:12:09;3.55;;;1.65;;
16642;SDS011;8435;52.184;5.406;2023-06-14T11:14:36;1.77;;;1.48;;
16642;SDS011;8435;52.184;5.406;2023-06-14T11:17:04;1.65;;;1.30;;
16642;SDS011;8435;52.184;5.406;2023-06-14T11:19:31;2.88;;;1.58;;
16642;SDS011;8435;52.184;5.406;2023-06-14T11:22:04;2.40;;;2.25;;
16642;SDS011;8435;52.184;5.406;2023-06-14T11:24:32;1.60;;;1.50;;
16642;SDS011;8435;52.184;5.406;2023-06-14T11:26:59;1.95;;;1.52;;
16642;SDS011;8435;52.184;5.406;2023-06-14T11:29:28;1.70;;;1.60;;
16642;SDS011;8435;52.184;5.406;2023-06-14T11:31:56;1.80;;;1.70;;
16642;SDS011;8435;52.184;5.406;2023-06-14T11:34:24;1.60;;;1.50;;
16642;SDS011;8435;52.184;5.406;2023-06-14T11:36:52;2.40;;;1.77;;
16642;SDS011;8435;52.184;5.406;2023-06-14T11:39:23;1.40;;;1.40;;
16642;SDS011;8435;52.184;5.406;2023-06-14T11:41:50;3.05;;;1.70;;
16642;SDS011;8435;52.184;5.406;2023-06-14T11:44:17;1.60;;;1.50;;
16642;SDS011;8435;52.184;5.406;2023-06-14T11:46:45;1.65;;;1.55;;
16642;SDS011;8435;52.184;5.406;2023-06-14T11:49:12;1.73;;;1.63;;
16642;SDS011;8435;52.184;5.406;2023-06-14T11:51:39;1.60;;;1.50;;
16642;SDS011;8435;52.184;5.406;2023-06-14T11:54:06;2.30;;;1.85;;
16642;SDS011;8435;52.184;5.406;2023-06-14T11:56:33;2.38;;;1.58;;
16642;SDS011;8435;52.184;5.406;2023-06-14T11:59:01;3.72;;;2.03;;
16642;SDS011;8435;52.184;5.406;2023-06-14T12:01:30;1.63;;;1.50;;
16642;SDS011;8435;52.184;5.406;2023-06-14T12:03:59;1.83;;;1.70;;
16642;SDS011;8435;52.184;5.406;2023-06-14T12:06:29;1.65;;;1.55;;
16642;SDS011;8435;52.184;5.406;2023-06-14T12:09:03;1.58;;;1.48;;
16642;SDS011;8435;52.184;5.406;2023-06-14T12:11:32;3.63;;;1.52;;
16642;SDS011;8435;52.184;5.406;2023-06-14T12:14:00;2.38;;;1.95;;
16642;SDS011;8435;52.184;5.406;2023-06-14T12:16:30;1.80;;;1.70;;
16642;SDS011;8435;52.184;5.406;2023-06-14T12:19:09;3.45;;;1.58;;
16642;SDS011;8435;52.184;5.406;2023-06-14T12:21:38;1.60;;;1.50;;
16642;SDS011;8435;52.184;5.406;2023-06-14T12:24:05;1.48;;;1.38;;
16642;SDS011;8435;52.184;5.406;2023-06-14T12:26:32;1.60;;;1.50;;
16642;SDS011;8435;52.184;5.406;2023-06-14T12:29:00;2.22;;;1.63;;
16642;SDS011;8435;52.184;5.406;2023-06-14T12:31:27;2.70;;;1.73;;
16642;SDS011;8435;52.184;5.406;2023-06-14T12:33:54;2.58;;;1.92;;
16642;SDS011;8435;52.184;5.406;2023-06-14T12:36:24;3.30;;;1.55;;
16642;SDS011;8435;52.184;5.406;2023-06-14T12:38:52;4.28;;;1.70;;
16642;SDS011;8435;52.184;5.406;2023-06-14T12:41:19;3.50;;;2.00;;
16642;SDS011;8435;52.184;5.406;2023-06-14T12:43:47;1.80;;;1.45;;
16642;SDS011;8435;52.184;5.406;2023-06-14T12:46:14;1.85;;;1.55;;
16642;SDS011;8435;52.184;5.406;2023-06-14T12:48:41;2.65;;;2.05;;
16642;SDS011;8435;52.184;5.406;2023-06-14T12:51:08;1.98;;;1.77;;
16642;SDS011;8435;52.184;5.406;2023-06-14T12:53:36;3.05;;;1.80;;
16642;SDS011;8435;52.184;5.406;2023-06-14T12:56:02;1.92;;;1.83;;
16642;SDS011;8435;52.184;5.406;2023-06-14T12:58:29;2.15;;;1.80;;
16642;SDS011;8435;52.184;5.406;2023-06-14T13:00:56;2.45;;;2.20;;
16642;SDS011;8435;52.184;5.406;2023-06-14T13:03:23;2.60;;;2.40;;
16642;SDS011;8435;52.184;5.406;2023-06-14T13:05:50;3.45;;;3.00;;
16642;SDS011;8435;52.184;5.406;2023-06-14T13:08:20;2.40;;;2.00;;
16642;SDS011;8435;52.184;5.406;2023-06-14T13:10:48;2.72;;;2.10;;
16642;SDS011;8435;52.184;5.406;2023-06-14T13:13:15;1.60;;;1.50;;
16642;SDS011;8435;52.184;5.406;2023-06-14T13:15:42;2.75;;;1.60;;
16642;SDS011;8435;52.184;5.406;2023-06-14T13:18:10;2.67;;;1.65;;
16642;SDS011;8435;52.184;5.406;2023-06-14T13:20:38;3.00;;;1.58;;
16642;SDS011;8435;52.184;5.406;2023-06-14T13:23:04;1.50;;;1.40;;
16642;SDS011;8435;52.184;5.406;2023-06-14T13:25:32;1.70;;;1.60;;
16642;SDS011;8435;52.184;5.406;2023-06-14T13:28:00;1.52;;;1.42;;
16642;SDS011;8435;52.184;5.406;2023-06-14T13:30:27;1.95;;;1.60;;
16642;SDS011;8435;52.184;5.406;2023-06-14T13:32:54;1.63;;;1.27;;
16642;SDS011;8435;52.184;5.406;2023-06-14T13:35:21;1.67;;;1.58;;
16642;SDS011;8435;52.184;5.406;2023-06-14T13:37:48;3.00;;;1.60;;
16642;SDS011;8435;52.184;5.406;2023-06-14T13:40:15;1.60;;;1.50;;
16642;SDS011;8435;52.184;5.406;2023-06-14T13:42:42;1.90;;;1.50;;
16642;SDS011;8435;52.184;5.406;2023-06-14T13:45:10;1.70;;;1.48;;
16642;SDS011;8435;52.184;5.406;2023-06-14T13:47:38;1.50;;;1.40;;
16642;SDS011;8435;52.184;5.406;2023-06-14T13:50:05;1.88;;;1.77;;
16642;SDS011;8435;52.184;5.406;2023-06-14T13:52:32;3.13;;;1.30;;
16642;SDS011;8435;52.184;5.406;2023-06-14T13:55:01;3.05;;;1.70;;
16642;SDS011;8435;52.184;5.406;2023-06-14T13:57:30;1.75;;;1.33;;
16642;SDS011;8435;52.184;5.406;2023-06-14T13:59:57;1.65;;;1.40;;
16642;SDS011;8435;52.184;5.406;2023-06-14T14:02:27;1.60;;;1.50;;
16642;SDS011;8435;52.184;5.406;2023-06-14T14:04:54;3.63;;;1.63;;
16642;SDS011;8435;52.184;5.406;2023-06-14T14:07:24;1.70;;;1.60;;
16642;SDS011;8435;52.184;5.406;2023-06-14T14:09:53;1.70;;;1.60;;
16642;SDS011;8435;52.184;5.406;2023-06-14T14:12:22;3.72;;;1.63;;
16642;SDS011;8435;52.184;5.406;2023-06-14T14:14:50;1.58;;;1.48;;
16642;SDS011;8435;52.184;5.406;2023-06-14T14:17:17;1.50;;;1.40;;
16642;SDS011;8435;52.184;5.406;2023-06-14T14:19:45;1.63;;;1.52;;
16642;SDS011;8435;52.184;5.406;2023-06-14T14:22:12;1.83;;;1.70;;
16642;SDS011;8435;52.184;5.406;2023-06-14T14:24:39;2.17;;;1.50;;
16642;SDS011;8435;52.184;5.406;2023-06-14T14:27:06;1.70;;;1.60;;
16642;SDS011;8435;52.184;5.406;2023-06-14T14:29:33;1.35;;;1.27;;
16642;SDS011;8435;52.184;5.406;2023-06-14T14:32:00;1.55;;;1.42;;
16642;SDS011;8435;52.184;5.406;2023-06-14T14:34:27;5.50;;;1.55;;
16642;SDS011;8435;52.184;5.406;2023-06-14T14:36:55;1.33;;;1.23;;
16642;SDS011;8435;52.184;5.406;2023-06-14T14:39:22;1.92;;;1.73;;
16642;SDS011;8435;52.184;5.406;2023-06-14T14:41:49;1.88;;;1.77;;
16642;SDS011;8435;52.184;5.406;2023-06-14T14:44:16;4.43;;;1.83;;
16642;SDS011;8435;52.184;5.406;2023-06-14T14:46:44;2.42;;;1.70;;
16642;SDS011;8435;52.184;5.406;2023-06-14T14:49:11;1.45;;;1.35;;
16642;SDS011;8435;52.184;5.406;2023-06-14T14:51:38;1.63;;;1.52;;
16642;SDS011;8435;52.184;5.406;2023-06-14T14:54:06;1.77;;;1.38;;
16642;SDS011;8435;52.184;5.406;2023-06-14T14:56:33;4.13;;;1.50;;
16642;SDS011;8435;52.184;5.406;2023-06-14T14:59:02;1.60;;;1.50;;
16642;SDS011;8435;52.184;5.406;2023-06-14T15:01:30;2.97;;;1.50;;
16642;SDS011;8435;52.184;5.406;2023-06-14T15:03:56;3.67;;;1.70;;
16642;SDS011;8435;52.184;5.406;2023-06-14T15:06:23;2.55;;;1.70;;
16642;SDS011;8435;52.184;5.406;2023-06-14T15:08:50;1.42;;;1.33;;
16642;SDS011;8435;52.184;5.406;2023-06-14T15:11:18;3.25;;;1.60;;
16642;SDS011;8435;52.184;5.406;2023-06-14T15:13:46;1.55;;;1.42;;